sensor_id;sensor_type;location;lat;lon;timestamp;pressure;altitude;pressure_sealevel;temperature;humidity
24892;BME280;12954;50.688;10.908;2023-01-28T00:02:08;96293.06;;;-1.38;74.53
24892;BME280;12954;50.688;10.908;2023-01-28T00:04:36;96286.56;;;-1.36;74.37
24892;BME280;12954;50.688;10.908;2023-01-28T00:07:06;96288.59;;;-1.38;74.89
24892;BME280;12954;50.688;10.908;2023-01-28T00:09:34;96288.31;;;-1.28;74.63
24892;BME280;12954;50.688;10.908;2023-01-28T00:12:03;96273.72;;;-1.18;73.36
24892;BME280;12954;50.688;10.908;2023-01-28T00:14:33;96279.16;;;-1.26;73.40
24892;BME280;12954;50.688;10.908;2023-01-28T00:17:03;96280.44;;;-1.22;73.26
24892;BME280;12954;50.688;10.908;2023-01-28T00:19:32;96280.53;;;-1.30;73.17
24892;BME280;12954;50.688;10.908;2023-01-28T00:22:00;96278.09;;;-1.10;72.70
24892;BME280;12954;50.688;10.908;2023-01-28T00:24:30;96280.22;;;-1.20;72.62
24892;BME280;12954;50.688;10.908;2023-01-28T00:26:58;96220.28;;;-1.70;73.00
24892;BME280;12954;50.688;10.908;2023-01-28T00:29:27;96283.88;;;-1.42;73.66
24892;BME280;12954;50.688;10.908;2023-01-28T00:31:57;96281.44;;;-1.23;72.20
24892;BME280;12954;50.688;10.908;2023-01-28T00:34:25;96275.25;;;-1.30;72.24
24892;BME280;12954;50.688;10.908;2023-01-28T00:36:53;96279.13;;;-1.47;73.29
24892;BME280;12954;50.688;10.908;2023-01-28T00:39:24;96287.66;;;-1.51;74.06
24892;BME280;12954;50.688;10.908;2023-01-28T00:41:53;96287.22;;;-1.34;73.10
24892;BME280;12954;50.688;10.908;2023-01-28T00:44:22;96288.09;;;-1.48;73.50
24892;BME280;12954;50.688;10.908;2023-01-28T00:46:50;96284.81;;;-1.50;73.77
24892;BME280;12954;50.688;10.908;2023-01-28T00:49:20;96261.03;;;-1.64;73.75
24892;BME280;12954;50.688;10.908;2023-01-28T00:51:48;96275.88;;;-1.49;74.33
24892;BME280;12954;50.688;10.908;2023-01-28T00:54:16;96259.13;;;-1.35;71.93
24892;BME280;12954;50.688;10.908;2023-01-28T00:56:45;96281.19;;;-1.28;71.96
24892;BME280;12954;50.688;10.908;2023-01-28T00:59:13;96287.22;;;-1.34;72.54
24892;BME280;12954;50.688;10.908;2023-01-28T01:01:42;96276.78;;;-1.42;72.71
24892;BME280;12954;50.688;10.908;2023-01-28T01:04:10;96288.84;;;-1.54;73.25
24892;BME280;12954;50.688;10.908;2023-01-28T01:06:40;96285.25;;;-1.46;73.28
24892;BME280;12954;50.688;10.908;2023-01-28T01:09:10;96289.22;;;-1.57;73.92
24892;BME280;12954;50.688;10.908;2023-01-28T01:11:39;96291.66;;;-1.55;74.07
24892;BME280;12954;50.688;10.908;2023-01-28T01:14:09;96290.38;;;-1.45;73.44
24892;BME280;12954;50.688;10.908;2023-01-28T01:16:38;96297.94;;;-1.42;73.26
24892;BME280;12954;50.688;10.908;2023-01-28T01:19:06;96288.66;;;-1.52;73.74
24892;BME280;12954;50.688;10.908;2023-01-28T01:21:35;96285.47;;;-1.48;73.39
24892;BME280;12954;50.688;10.908;2023-01-28T01:24:05;96265.25;;;-1.70;73.35
24892;BME280;12954;50.688;10.908;2023-01-28T01:26:34;96291.97;;;-1.65;73.96
24892;BME280;12954;50.688;10.908;2023-01-28T01:29:02;96300.69;;;-1.50;73.58
24892;BME280;12954;50.688;10.908;2023-01-28T01:31:31;96290.09;;;-1.50;73.10
24892;BME280;12954;50.688;10.908;2023-01-28T01:33:59;96294.97;;;-1.68;73.70
24892;BME280;12954;50.688;10.908;2023-01-28T01:36:27;96295.63;;;-1.66;73.89
24892;BME280;12954;50.688;10.908;2023-01-28T01:38:56;96290.72;;;-1.69;74.42
24892;BME280;12954;50.688;10.908;2023-01-28T01:41:29;96296.50;;;-1.59;74.18
24892;BME280;12954;50.688;10.908;2023-01-28T01:43:59;96286.81;;;-1.52;73.57
24892;BME280;12954;50.688;10.908;2023-01-28T01:46:33;96295.25;;;-1.63;73.81
24892;BME280;12954;50.688;10.908;2023-01-28T01:49:11;96298.44;;;-1.67;74.25
24892;BME280;12954;50.688;10.908;2023-01-28T01:51:43;96235.72;;;-2.09;74.28
24892;BME280;12954;50.688;10.908;2023-01-28T01:54:13;96293.97;;;-1.67;74.12
24892;BME280;12954;50.688;10.908;2023-01-28T01:56:47;96302.53;;;-1.65;74.52
24892;BME280;12954;50.688;10.908;2023-01-28T01:59:22;96288.59;;;-1.74;74.55
24892;BME280;12954;50.688;10.908;2023-01-28T02:01:52;96289.81;;;-1.76;74.69
24892;BME280;12954;50.688;10.908;2023-01-28T02:04:24;96305.47;;;-1.60;74.86
24892;BME280;12954;50.688;10.908;2023-01-28T02:06:53;96309.44;;;-1.49;74.40
24892;BME280;12954;50.688;10.908;2023-01-28T02:09:23;96313.28;;;-1.52;74.51
24892;BME280;12954;50.688;10.908;2023-01-28T02:11:55;96303.97;;;-1.48;73.58
24892;BME280;12954;50.688;10.908;2023-01-28T02:14:26;96287.19;;;-1.55;72.69
24892;BME280;12954;50.688;10.908;2023-01-28T02:16:58;96322.31;;;-1.46;73.27
24892;BME280;12954;50.688;10.908;2023-01-28T02:19:33;96320.97;;;-1.57;73.73
24892;BME280;12954;50.688;10.908;2023-01-28T02:22:29;96324.69;;;-1.51;73.23
24892;BME280;12954;50.688;10.908;2023-01-28T02:25:31;96297.19;;;-1.71;73.41
24892;BME280;12954;50.688;10.908;2023-01-28T02:28:12;96299.63;;;-1.70;73.50
24892;BME280;12954;50.688;10.908;2023-01-28T02:30:50;96324.97;;;-1.61;73.88
24892;BME280;12954;50.688;10.908;2023-01-28T02:33:25;96331.09;;;-1.60;73.71
24892;BME280;12954;50.688;10.908;2023-01-28T02:36:02;96335.19;;;-1.58;73.43
24892;BME280;12954;50.688;10.908;2023-01-28T02:38:40;96325.28;;;-1.85;74.00
24892;BME280;12954;50.688;10.908;2023-01-28T02:41:14;96342.59;;;-1.68;74.04
24892;BME280;12954;50.688;10.908;2023-01-28T02:43:48;96341.34;;;-1.72;74.52
24892;BME280;12954;50.688;10.908;2023-01-28T02:46:21;96342.59;;;-1.68;74.50
24892;BME280;12954;50.688;10.908;2023-01-28T02:49:11;96346.13;;;-1.61;73.91
24892;BME280;12954;50.688;10.908;2023-01-28T02:51:56;96331.28;;;-1.77;74.32
24892;BME280;12954;50.688;10.908;2023-01-28T02:54:34;96343.00;;;-1.50;73.82
24892;BME280;12954;50.688;10.908;2023-01-28T02:57:13;96318.16;;;-1.70;73.10
24892;BME280;12954;50.688;10.908;2023-01-28T02:59:50;96340.31;;;-1.71;74.14
24892;BME280;12954;50.688;10.908;2023-01-28T03:02:30;96337.13;;;-1.66;73.93
24892;BME280;12954;50.688;10.908;2023-01-28T03:05:04;96338.94;;;-1.67;73.96
24892;BME280;12954;50.688;10.908;2023-01-28T03:07:36;96338.84;;;-1.59;73.26
24892;BME280;12954;50.688;10.908;2023-01-28T03:10:08;96301.84;;;-1.88;73.60
24892;BME280;12954;50.688;10.908;2023-01-28T03:12:40;96336.19;;;-1.59;73.16
24892;BME280;12954;50.688;10.908;2023-01-28T03:15:33;96331.66;;;-1.80;74.08
24892;BME280;12954;50.688;10.908;2023-01-28T03:18:23;96325.66;;;-1.88;73.95
24892;BME280;12954;50.688;10.908;2023-01-28T03:21:12;96345.06;;;-1.81;74.16
24892;BME280;12954;50.688;10.908;2023-01-28T03:24:03;96330.03;;;-1.81;73.18
24892;BME280;12954;50.688;10.908;2023-01-28T03:26:55;96341.97;;;-1.70;73.38
24892;BME280;12954;50.688;10.908;2023-01-28T03:29:43;96354.66;;;-1.80;73.47
24892;BME280;12954;50.688;10.908;2023-01-28T03:32:31;96364.41;;;-1.95;74.81
24892;BME280;12954;50.688;10.908;2023-01-28T03:35:21;96358.47;;;-1.97;74.83
24892;BME280;12954;50.688;10.908;2023-01-28T03:38:08;96363.75;;;-1.97;74.79
24892;BME280;12954;50.688;10.908;2023-01-28T03:40:50;96337.97;;;-2.24;75.16
24892;BME280;12954;50.688;10.908;2023-01-28T03:43:19;96366.69;;;-1.92;75.17
24892;BME280;12954;50.688;10.908;2023-01-28T03:45:47;96331.31;;;-2.06;73.91
24892;BME280;12954;50.688;10.908;2023-01-28T03:48:19;96365.50;;;-1.75;73.53
24892;BME280;12954;50.688;10.908;2023-01-28T03:50:48;96356.38;;;-1.87;73.70
24892;BME280;12954;50.688;10.908;2023-01-28T03:53:20;96321.47;;;-2.12;73.52
24892;BME280;12954;50.688;10.908;2023-01-28T03:55:50;96371.31;;;-1.94;74.83
24892;BME280;12954;50.688;10.908;2023-01-28T03:58:19;96368.53;;;-1.93;74.66
24892;BME280;12954;50.688;10.908;2023-01-28T04:00:49;96334.78;;;-2.20;74.33
24892;BME280;12954;50.688;10.908;2023-01-28T04:03:20;96367.97;;;-1.88;74.77
24892;BME280;12954;50.688;10.908;2023-01-28T04:05:57;96334.53;;;-2.10;73.81
24892;BME280;12954;50.688;10.908;2023-01-28T04:08:26;96367.78;;;-1.72;74.04
24892;BME280;12954;50.688;10.908;2023-01-28T04:10:55;96363.75;;;-1.68;73.01
24892;BME280;12954;50.688;10.908;2023-01-28T04:13:23;96368.16;;;-1.90;73.50
24892;BME280;12954;50.688;10.908;2023-01-28T04:15:51;96374.63;;;-1.92;73.54
24892;BME280;12954;50.688;10.908;2023-01-28T04:18:21;96353.28;;;-2.05;73.84
24892;BME280;12954;50.688;10.908;2023-01-28T04:20:53;96376.97;;;-1.97;74.01
24892;BME280;12954;50.688;10.908;2023-01-28T04:23:21;96343.44;;;-2.11;73.60
24892;BME280;12954;50.688;10.908;2023-01-28T04:25:50;96379.06;;;-1.63;71.65
24892;BME280;12954;50.688;10.908;2023-01-28T04:28:18;96378.91;;;-1.91;72.60
24892;BME280;12954;50.688;10.908;2023-01-28T04:30:47;96375.53;;;-1.85;72.63
24892;BME280;12954;50.688;10.908;2023-01-28T04:33:15;96377.53;;;-1.87;71.84
24892;BME280;12954;50.688;10.908;2023-01-28T04:35:45;96356.91;;;-2.21;72.45
24892;BME280;12954;50.688;10.908;2023-01-28T04:38:13;96377.53;;;-2.16;73.50
24892;BME280;12954;50.688;10.908;2023-01-28T04:40:42;96379.34;;;-2.02;73.00
24892;BME280;12954;50.688;10.908;2023-01-28T04:43:10;96359.66;;;-2.14;73.13
24892;BME280;12954;50.688;10.908;2023-01-28T04:45:38;96375.16;;;-2.11;73.11
24892;BME280;12954;50.688;10.908;2023-01-28T04:48:07;96386.09;;;-1.85;71.90
24892;BME280;12954;50.688;10.908;2023-01-28T04:50:35;96385.94;;;-1.98;72.32
24892;BME280;12954;50.688;10.908;2023-01-28T04:53:05;96332.84;;;-2.41;72.48
24892;BME280;12954;50.688;10.908;2023-01-28T04:55:33;96385.72;;;-2.11;72.84
24892;BME280;12954;50.688;10.908;2023-01-28T04:58:02;96392.19;;;-2.14;73.13
24892;BME280;12954;50.688;10.908;2023-01-28T05:00:31;96387.53;;;-2.12;73.72
24892;BME280;12954;50.688;10.908;2023-01-28T05:02:59;96381.28;;;-2.11;72.63
24892;BME280;12954;50.688;10.908;2023-01-28T05:05:28;96391.75;;;-2.03;73.31
24892;BME280;12954;50.688;10.908;2023-01-28T05:07:57;96345.09;;;-2.10;71.44
24892;BME280;12954;50.688;10.908;2023-01-28T05:10:27;96396.03;;;-2.02;72.09
24892;BME280;12954;50.688;10.908;2023-01-28T05:12:55;96394.03;;;-2.00;72.56
24892;BME280;12954;50.688;10.908;2023-01-28T05:15:24;96381.28;;;-1.96;70.94
24892;BME280;12954;50.688;10.908;2023-01-28T05:17:53;96392.56;;;-2.02;71.08
24892;BME280;12954;50.688;10.908;2023-01-28T05:20:22;96389.78;;;-2.01;70.86
24892;BME280;12954;50.688;10.908;2023-01-28T05:22:51;96385.94;;;-2.13;71.22
24892;BME280;12954;50.688;10.908;2023-01-28T05:25:19;96391.38;;;-2.14;71.99
24892;BME280;12954;50.688;10.908;2023-01-28T05:27:52;96393.31;;;-2.08;70.73
24892;BME280;12954;50.688;10.908;2023-01-28T05:30:21;96369.13;;;-2.35;71.06
24892;BME280;12954;50.688;10.908;2023-01-28T05:32:53;96396.13;;;-2.24;71.48
24892;BME280;12954;50.688;10.908;2023-01-28T05:35:22;96404.03;;;-2.24;71.31
24892;BME280;12954;50.688;10.908;2023-01-28T05:37:50;96409.88;;;-2.14;71.05
24892;BME280;12954;50.688;10.908;2023-01-28T05:40:19;96414.25;;;-2.21;71.26
24892;BME280;12954;50.688;10.908;2023-01-28T05:42:47;96402.47;;;-2.34;72.21
24892;BME280;12954;50.688;10.908;2023-01-28T05:45:17;96409.59;;;-2.19;71.24
24892;BME280;12954;50.688;10.908;2023-01-28T05:47:45;96410.97;;;-2.09;70.00
24892;BME280;12954;50.688;10.908;2023-01-28T05:50:14;96415.72;;;-2.19;70.54
24892;BME280;12954;50.688;10.908;2023-01-28T05:52:43;96422.25;;;-2.15;70.15
24892;BME280;12954;50.688;10.908;2023-01-28T05:55:12;96416.59;;;-2.26;70.63
24892;BME280;12954;50.688;10.908;2023-01-28T05:57:40;96430.81;;;-2.27;70.40
24892;BME280;12954;50.688;10.908;2023-01-28T06:00:11;96420.16;;;-2.34;70.10
24892;BME280;12954;50.688;10.908;2023-01-28T06:02:43;96424.78;;;-2.36;71.11
24892;BME280;12954;50.688;10.908;2023-01-28T06:05:11;96397.69;;;-2.53;70.86
24892;BME280;12954;50.688;10.908;2023-01-28T06:07:43;96435.53;;;-2.38;71.07
24892;BME280;12954;50.688;10.908;2023-01-28T06:10:12;96403.53;;;-2.43;70.72
24892;BME280;12954;50.688;10.908;2023-01-28T06:12:41;96440.38;;;-2.26;70.54
24892;BME280;12954;50.688;10.908;2023-01-28T06:15:11;96440.03;;;-2.23;70.26
24892;BME280;12954;50.688;10.908;2023-01-28T06:17:39;96447.31;;;-2.25;70.22
24892;BME280;12954;50.688;10.908;2023-01-28T06:20:10;96437.31;;;-2.15;69.16
24892;BME280;12954;50.688;10.908;2023-01-28T06:22:39;96435.44;;;-2.30;69.67
24892;BME280;12954;50.688;10.908;2023-01-28T06:25:08;96424.09;;;-2.53;69.98
24892;BME280;12954;50.688;10.908;2023-01-28T06:27:36;96443.09;;;-2.35;70.27
24892;BME280;12954;50.688;10.908;2023-01-28T06:30:06;96440.19;;;-2.40;70.48
24892;BME280;12954;50.688;10.908;2023-01-28T06:32:35;96452.97;;;-2.28;70.65
24892;BME280;12954;50.688;10.908;2023-01-28T06:35:04;96454.09;;;-2.08;69.06
24892;BME280;12954;50.688;10.908;2023-01-28T06:37:34;96445.09;;;-2.37;69.96
24892;BME280;12954;50.688;10.908;2023-01-28T06:40:03;96414.25;;;-2.59;69.85
24892;BME280;12954;50.688;10.908;2023-01-28T06:42:32;96457.53;;;-2.22;69.45
24892;BME280;12954;50.688;10.908;2023-01-28T06:45:00;96457.09;;;-2.11;69.38
24892;BME280;12954;50.688;10.908;2023-01-28T06:47:29;96454.81;;;-2.14;68.92
24892;BME280;12954;50.688;10.908;2023-01-28T06:49:58;96457.88;;;-2.25;69.35
24892;BME280;12954;50.688;10.908;2023-01-28T06:52:26;96464.34;;;-2.28;69.05
24892;BME280;12954;50.688;10.908;2023-01-28T06:54:56;96467.13;;;-2.21;69.26
24892;BME280;12954;50.688;10.908;2023-01-28T06:57:24;96415.91;;;-2.58;69.04
24892;BME280;12954;50.688;10.908;2023-01-28T06:59:53;96471.09;;;-2.25;69.31
24892;BME280;12954;50.688;10.908;2023-01-28T07:02:21;96477.56;;;-2.28;69.56
24892;BME280;12954;50.688;10.908;2023-01-28T07:04:53;96470.03;;;-2.16;69.58
24892;BME280;12954;50.688;10.908;2023-01-28T07:07:21;96474.97;;;-2.13;68.93
24892;BME280;12954;50.688;10.908;2023-01-28T07:09:49;96479.63;;;-2.15;68.38
24892;BME280;12954;50.688;10.908;2023-01-28T07:12:19;96468.47;;;-2.25;68.72
24892;BME280;12954;50.688;10.908;2023-01-28T07:14:48;96486.31;;;-2.27;68.83
24892;BME280;12954;50.688;10.908;2023-01-28T07:17:16;96476.09;;;-2.31;68.88
24892;BME280;12954;50.688;10.908;2023-01-28T07:19:44;96480.59;;;-2.16;68.27
24892;BME280;12954;50.688;10.908;2023-01-28T07:22:13;96493.34;;;-2.20;67.71
24892;BME280;12954;50.688;10.908;2023-01-28T07:24:41;96490.03;;;-2.37;68.56
24892;BME280;12954;50.688;10.908;2023-01-28T07:27:09;96478.34;;;-2.42;68.75
24892;BME280;12954;50.688;10.908;2023-01-28T07:29:39;96477.03;;;-2.46;69.06
24892;BME280;12954;50.688;10.908;2023-01-28T07:32:08;96476.47;;;-2.34;67.78
24892;BME280;12954;50.688;10.908;2023-01-28T07:34:36;96453.81;;;-2.51;68.56
24892;BME280;12954;50.688;10.908;2023-01-28T07:37:07;96467.22;;;-2.38;67.88
24892;BME280;12954;50.688;10.908;2023-01-28T07:39:35;96471.47;;;-2.28;67.27
24892;BME280;12954;50.688;10.908;2023-01-28T07:42:04;96463.13;;;-2.40;67.77
24892;BME280;12954;50.688;10.908;2023-01-28T07:44:32;96471.28;;;-2.50;67.80
24892;BME280;12954;50.688;10.908;2023-01-28T07:47:04;96471.75;;;-2.46;67.86
24892;BME280;12954;50.688;10.908;2023-01-28T07:49:32;96473.94;;;-2.50;68.35
24892;BME280;12954;50.688;10.908;2023-01-28T07:52:01;96484.03;;;-2.53;68.63
24892;BME280;12954;50.688;10.908;2023-01-28T07:54:29;96486.50;;;-2.52;68.59
24892;BME280;12954;50.688;10.908;2023-01-28T07:56:58;96493.88;;;-2.47;68.41
24892;BME280;12954;50.688;10.908;2023-01-28T07:59:26;96486.91;;;-2.40;68.00
24892;BME280;12954;50.688;10.908;2023-01-28T08:01:54;96471.28;;;-2.50;67.92
24892;BME280;12954;50.688;10.908;2023-01-28T08:04:24;96505.69;;;-2.35;67.70
24892;BME280;12954;50.688;10.908;2023-01-28T08:06:53;96472.00;;;-2.56;67.33
24892;BME280;12954;50.688;10.908;2023-01-28T08:09:22;96506.56;;;-2.43;67.72
24892;BME280;12954;50.688;10.908;2023-01-28T08:11:52;96469.28;;;-2.70;67.31
24892;BME280;12954;50.688;10.908;2023-01-28T08:14:20;96497.66;;;-2.42;67.41
24892;BME280;12954;50.688;10.908;2023-01-28T08:16:49;96509.44;;;-2.30;66.79
24892;BME280;12954;50.688;10.908;2023-01-28T08:19:17;96503.44;;;-2.23;65.76
24892;BME280;12954;50.688;10.908;2023-01-28T08:21:49;96507.00;;;-2.31;66.45
24892;BME280;12954;50.688;10.908;2023-01-28T08:24:17;96498.88;;;-2.30;65.91
24892;BME280;12954;50.688;10.908;2023-01-28T08:26:47;96510.19;;;-2.21;65.61
24892;BME280;12954;50.688;10.908;2023-01-28T08:29:15;96512.44;;;-2.33;66.23
24892;BME280;12954;50.688;10.908;2023-01-28T08:31:44;96514.38;;;-2.26;66.06
24892;BME280;12954;50.688;10.908;2023-01-28T08:34:13;96511.31;;;-2.38;66.37
24892;BME280;12954;50.688;10.908;2023-01-28T08:36:41;96504.50;;;-2.33;66.28
24892;BME280;12954;50.688;10.908;2023-01-28T08:39:11;96523.31;;;-2.27;65.91
24892;BME280;12954;50.688;10.908;2023-01-28T08:41:39;96410.72;;;-2.97;65.67
24892;BME280;12954;50.688;10.908;2023-01-28T08:44:07;96507.97;;;-2.32;65.90
24892;BME280;12954;50.688;10.908;2023-01-28T08:46:36;96515.81;;;-2.39;66.57
24892;BME280;12954;50.688;10.908;2023-01-28T08:49:04;96515.56;;;-2.29;66.13
24892;BME280;12954;50.688;10.908;2023-01-28T08:51:33;96490.44;;;-2.48;66.36
24892;BME280;12954;50.688;10.908;2023-01-28T08:54:01;96512.06;;;-2.30;65.36
24892;BME280;12954;50.688;10.908;2023-01-28T08:56:31;96515.06;;;-2.33;65.49
24892;BME280;12954;50.688;10.908;2023-01-28T08:59:00;96510.53;;;-2.39;66.47
24892;BME280;12954;50.688;10.908;2023-01-28T09:01:29;96512.41;;;-2.24;65.92
24892;BME280;12954;50.688;10.908;2023-01-28T09:03:58;96496.53;;;-2.24;66.15
24892;BME280;12954;50.688;10.908;2023-01-28T09:06:27;96510.94;;;-2.27;66.25
24892;BME280;12954;50.688;10.908;2023-01-28T09:08:56;96519.63;;;-2.18;65.75
24892;BME280;12954;50.688;10.908;2023-01-28T09:11:24;96519.97;;;-2.21;65.71
24892;BME280;12954;50.688;10.908;2023-01-28T09:13:56;96518.50;;;-2.24;65.79
24892;BME280;12954;50.688;10.908;2023-01-28T09:16:24;96497.94;;;-2.37;66.25
24892;BME280;12954;50.688;10.908;2023-01-28T09:18:53;96428.06;;;-2.71;66.08
24892;BME280;12954;50.688;10.908;2023-01-28T09:21:21;96531.41;;;-2.06;65.37
24892;BME280;12954;50.688;10.908;2023-01-28T09:23:49;96530.94;;;-2.10;65.99
24892;BME280;12954;50.688;10.908;2023-01-28T09:26:18;96478.03;;;-2.47;66.25
24892;BME280;12954;50.688;10.908;2023-01-28T09:28:47;96432.50;;;-2.72;65.78
24892;BME280;12954;50.688;10.908;2023-01-28T09:31:17;96535.59;;;-1.97;66.28
24892;BME280;12954;50.688;10.908;2023-01-28T09:33:46;96537.50;;;-1.83;66.27
24892;BME280;12954;50.688;10.908;2023-01-28T09:36:20;96543.34;;;-1.73;66.16
24892;BME280;12954;50.688;10.908;2023-01-28T09:38:49;96529.13;;;-1.72;65.09
24892;BME280;12954;50.688;10.908;2023-01-28T09:41:23;96540.31;;;-1.70;64.25
24892;BME280;12954;50.688;10.908;2023-01-28T09:44:03;96533.09;;;-1.76;64.65
24892;BME280;12954;50.688;10.908;2023-01-28T09:46:35;96547.91;;;-1.67;63.59
24892;BME280;12954;50.688;10.908;2023-01-28T09:49:13;96550.75;;;-1.68;63.96
24892;BME280;12954;50.688;10.908;2023-01-28T09:51:47;96524.31;;;-1.91;63.75
24892;BME280;12954;50.688;10.908;2023-01-28T09:54:29;96547.53;;;-1.64;62.76
24892;BME280;12954;50.688;10.908;2023-01-28T09:57:03;96553.13;;;-1.59;62.46
24892;BME280;12954;50.688;10.908;2023-01-28T09:59:34;96552.66;;;-1.77;62.87
24892;BME280;12954;50.688;10.908;2023-01-28T10:02:25;96455.56;;;-2.43;62.82
24892;BME280;12954;50.688;10.908;2023-01-28T10:05:02;96552.88;;;-1.87;63.41
24892;BME280;12954;50.688;10.908;2023-01-28T10:07:40;96569.78;;;-1.73;62.80
24892;BME280;12954;50.688;10.908;2023-01-28T10:10:12;96565.28;;;-1.87;62.96
24892;BME280;12954;50.688;10.908;2023-01-28T10:13:03;96571.19;;;-1.85;62.79
24892;BME280;12954;50.688;10.908;2023-01-28T10:15:46;96569.47;;;-1.93;62.78
24892;BME280;12954;50.688;10.908;2023-01-28T10:18:21;96568.28;;;-1.90;62.96
24892;BME280;12954;50.688;10.908;2023-01-28T10:20:55;96566.06;;;-2.01;63.29
24892;BME280;12954;50.688;10.908;2023-01-28T10:23:28;96530.91;;;-2.24;63.68
24892;BME280;12954;50.688;10.908;2023-01-28T10:26:03;96566.00;;;-1.93;63.75
24892;BME280;12954;50.688;10.908;2023-01-28T10:28:33;96560.16;;;-1.89;64.27
24892;BME280;12954;50.688;10.908;2023-01-28T10:31:10;96568.78;;;-1.72;63.70
24892;BME280;12954;50.688;10.908;2023-01-28T10:33:41;96568.66;;;-1.79;63.95
24892;BME280;12954;50.688;10.908;2023-01-28T10:36:10;96573.81;;;-1.77;63.65
24892;BME280;12954;50.688;10.908;2023-01-28T10:38:38;96531.34;;;-1.98;63.69
24892;BME280;12954;50.688;10.908;2023-01-28T10:41:10;96570.88;;;-1.67;63.52
24892;BME280;12954;50.688;10.908;2023-01-28T10:43:48;96553.16;;;-1.82;62.85
24892;BME280;12954;50.688;10.908;2023-01-28T10:46:20;96579.44;;;-1.80;63.19
24892;BME280;12954;50.688;10.908;2023-01-28T10:48:57;96573.81;;;-1.77;62.88
24892;BME280;12954;50.688;10.908;2023-01-28T10:51:32;96578.53;;;-1.72;62.71
24892;BME280;12954;50.688;10.908;2023-01-28T10:54:00;96569.66;;;-1.80;62.43
24892;BME280;12954;50.688;10.908;2023-01-28T10:56:30;96573.50;;;-1.82;62.75
24892;BME280;12954;50.688;10.908;2023-01-28T10:59:01;96570.09;;;-1.91;63.04
24892;BME280;12954;50.688;10.908;2023-01-28T11:01:41;96581.31;;;-1.66;61.95
24892;BME280;12954;50.688;10.908;2023-01-28T11:04:17;96456.03;;;-2.40;61.84
24892;BME280;12954;50.688;10.908;2023-01-28T11:06:55;96572.50;;;-1.81;61.69
24892;BME280;12954;50.688;10.908;2023-01-28T11:09:27;96573.91;;;-1.93;62.20
24892;BME280;12954;50.688;10.908;2023-01-28T11:11:57;96562.81;;;-1.89;62.03
24892;BME280;12954;50.688;10.908;2023-01-28T11:14:26;96544.28;;;-1.89;61.13
24892;BME280;12954;50.688;10.908;2023-01-28T11:16:56;96512.47;;;-2.18;60.47
24892;BME280;12954;50.688;10.908;2023-01-28T11:19:34;96580.25;;;-1.80;61.16
24892;BME280;12954;50.688;10.908;2023-01-28T11:22:03;96548.13;;;-1.91;60.94
24892;BME280;12954;50.688;10.908;2023-01-28T11:24:32;96591.75;;;-1.72;59.68
24892;BME280;12954;50.688;10.908;2023-01-28T11:27:11;96570.38;;;-1.86;59.28
24892;BME280;12954;50.688;10.908;2023-01-28T11:29:43;96559.00;;;-1.86;60.28
24892;BME280;12954;50.688;10.908;2023-01-28T11:32:19;96574.72;;;-1.70;60.02
24892;BME280;12954;50.688;10.908;2023-01-28T11:34:51;96548.63;;;-1.73;59.79
24892;BME280;12954;50.688;10.908;2023-01-28T11:37:20;96561.75;;;-1.65;59.38
24892;BME280;12954;50.688;10.908;2023-01-28T11:40:00;96564.59;;;-1.66;58.55
24892;BME280;12954;50.688;10.908;2023-01-28T11:42:29;96577.19;;;-1.68;59.29
24892;BME280;12954;50.688;10.908;2023-01-28T11:44:59;96559.06;;;-1.57;58.20
24892;BME280;12954;50.688;10.908;2023-01-28T11:47:41;96552.38;;;-1.67;58.68
24892;BME280;12954;50.688;10.908;2023-01-28T11:52:59;96548.25;;;-1.70;58.26
24892;BME280;12954;50.688;10.908;2023-01-28T11:55:46;96555.28;;;-1.77;59.24
24892;BME280;12954;50.688;10.908;2023-01-28T11:58:21;96556.66;;;-1.66;58.78
24892;BME280;12954;50.688;10.908;2023-01-28T12:01:00;96557.00;;;-1.84;58.62
24892;BME280;12954;50.688;10.908;2023-01-28T12:04:15;96553.63;;;-1.78;59.60
24892;BME280;12954;50.688;10.908;2023-01-28T12:06:55;96569.78;;;-1.73;58.97
24892;BME280;12954;50.688;10.908;2023-01-28T12:09:32;96554.50;;;-1.63;59.37
24892;BME280;12954;50.688;10.908;2023-01-28T12:12:16;96544.91;;;-1.64;59.00
24892;BME280;12954;50.688;10.908;2023-01-28T12:18:11;96531.03;;;-1.81;58.81
24892;BME280;12954;50.688;10.908;2023-01-28T12:20:48;96535.66;;;-1.68;57.54
24892;BME280;12954;50.688;10.908;2023-01-28T12:23:32;96540.53;;;-1.94;57.66
24892;BME280;12954;50.688;10.908;2023-01-28T12:26:08;96540.06;;;-2.12;58.55
24892;BME280;12954;50.688;10.908;2023-01-28T12:28:51;96548.06;;;-2.06;59.25
24892;BME280;12954;50.688;10.908;2023-01-28T12:34:43;96552.19;;;-2.03;59.08
24892;BME280;12954;50.688;10.908;2023-01-28T12:37:23;96510.25;;;-2.29;59.54
24892;BME280;12954;50.688;10.908;2023-01-28T12:40:09;96492.47;;;-2.35;59.64
24892;BME280;12954;50.688;10.908;2023-01-28T12:42:47;96540.09;;;-1.98;59.95
24892;BME280;12954;50.688;10.908;2023-01-28T12:45:22;96540.38;;;-1.93;59.65
24892;BME280;12954;50.688;10.908;2023-01-28T12:47:54;96540.19;;;-1.91;59.28
24892;BME280;12954;50.688;10.908;2023-01-28T12:50:28;96542.06;;;-2.00;59.50
24892;BME280;12954;50.688;10.908;2023-01-28T12:53:02;96539.34;;;-2.06;59.93
24892;BME280;12954;50.688;10.908;2023-01-28T12:55:39;96540.81;;;-2.04;59.89
24892;BME280;12954;50.688;10.908;2023-01-28T12:58:14;96531.81;;;-1.95;60.74
24892;BME280;12954;50.688;10.908;2023-01-28T13:00:48;96526.25;;;-1.85;60.21
24892;BME280;12954;50.688;10.908;2023-01-28T13:03:21;96529.91;;;-1.86;60.01
24892;BME280;12954;50.688;10.908;2023-01-28T13:05:58;96524.28;;;-1.83;60.20
24892;BME280;12954;50.688;10.908;2023-01-28T13:08:29;96533.78;;;-1.74;59.98
24892;BME280;12954;50.688;10.908;2023-01-28T13:11:01;96512.66;;;-1.82;59.43
24892;BME280;12954;50.688;10.908;2023-01-28T13:13:33;96529.63;;;-1.77;59.15
24892;BME280;12954;50.688;10.908;2023-01-28T13:16:04;96552.41;;;-1.90;59.12
24892;BME280;12954;50.688;10.908;2023-01-28T13:18:43;96541.72;;;-1.97;58.74
24892;BME280;12954;50.688;10.908;2023-01-28T13:21:15;96553.56;;;-2.07;58.13
24892;BME280;12954;50.688;10.908;2023-01-28T13:23:45;96519.94;;;-2.44;58.14
24892;BME280;12954;50.688;10.908;2023-01-28T13:26:30;96549.63;;;-2.34;58.40